Time;durP1;ratioP1;P1;durP2;ratioP2;P2;SDS_P1;SDS_P2;PMS_P1;PMS_P2;Temp;Humidity;BMP_temperature;BMP_pressure;BME280_temperature;BME280_humidity;BME280_pressure;Samples;Min_cycle;Max_cycle;Signal;HPM_P1;HPM_P2
2024/04/02 00:02:34;;;;;;;3.77;1.50;;;7.40;98.00;;;;;;6302878;28;20523;-62
2024/04/02 00:05:37;;;;;;;2.03;1.77;;;7.40;98.00;;;;;;6285440;28;20910;-63
2024/04/02 00:08:38;;;;;;;1.60;1.40;;;7.40;97.90;;;;;;6301715;28;20236;-62
2024/04/02 00:11:39;;;;;;;3.87;1.33;;;7.30;97.80;;;;;;6302708;28;20436;-62
2024/04/02 00:14:39;;;;;;;2.50;1.37;;;7.40;97.60;;;;;;6302892;28;20199;-62
2024/04/02 00:17:43;;;;;;;1.47;1.37;;;7.30;97.50;;;;;;6302256;28;20185;-62
2024/04/02 00:20:44;;;;;;;1.10;1.00;;;7.30;97.40;;;;;;6302119;28;20305;-63
2024/04/02 00:23:45;;;;;;;1.87;1.10;;;7.30;97.40;;;;;;6284834;28;20554;-62
2024/04/02 00:26:45;;;;;;;2.87;1.40;;;7.30;97.20;;;;;;6301323;28;20227;-62
2024/04/02 00:29:46;;;;;;;2.27;1.27;;;7.30;97.00;;;;;;6301326;28;20212;-61
2024/04/02 00:32:47;;;;;;;2.20;1.10;;;7.40;96.70;;;;;;6301214;28;20181;-61
2024/04/02 00:35:48;;;;;;;1.10;1.00;;;7.40;96.50;;;;;;6301074;28;20271;-61
2024/04/02 00:38:49;;;;;;;1.20;1.10;;;7.40;96.30;;;;;;6300946;28;20621;-61
2024/04/02 00:41:49;;;;;;;1.40;1.07;;;7.50;96.20;;;;;;6301457;28;20629;-61
2024/04/02 00:44:50;;;;;;;2.23;0.83;;;7.50;96.00;;;;;;6302410;28;20215;-63
2024/04/02 00:47:51;;;;;;;3.73;1.50;;;7.60;95.70;;;;;;6284655;28;20240;-62
2024/04/02 00:50:52;;;;;;;2.50;1.80;;;7.60;95.60;;;;;;6301670;28;20185;-64
2024/04/02 00:53:53;;;;;;;2.60;1.20;;;7.60;95.40;;;;;;6284854;28;20204;-64
2024/04/02 00:56:54;;;;;;;1.27;1.00;;;7.60;95.30;;;;;;6301484;28;20428;-63
2024/04/02 00:59:55;;;;;;;1.10;1.00;;;7.60;95.20;;;;;;6301477;28;20198;-63
2024/04/02 01:02:56;;;;;;;1.77;1.20;;;7.60;95.10;;;;;;6285215;28;20283;-63
2024/04/02 01:05:57;;;;;;;3.83;1.37;;;7.60;94.90;;;;;;6301944;28;20431;-63
2024/04/02 01:08:58;;;;;;;2.13;0.80;;;7.60;94.80;;;;;;6301584;28;20228;-63
2024/04/02 01:11:59;;;;;;;1.33;1.23;;;7.60;94.70;;;;;;6301594;28;20284;-63
2024/04/02 01:15:00;;;;;;;3.20;1.00;;;7.60;94.80;;;;;;6301923;28;20424;-61
2024/04/02 01:18:01;;;;;;;2.50;1.27;;;7.60;94.80;;;;;;6304262;28;20362;-62
2024/04/02 01:21:01;;;;;;;2.93;1.27;;;7.60;94.80;;;;;;6305019;28;20185;-62
2024/04/02 01:24:03;;;;;;;1.70;1.10;;;7.50;94.80;;;;;;6301562;28;20197;-62
2024/04/02 01:27:04;;;;;;;1.30;1.13;;;7.50;95.10;;;;;;6300930;28;20280;-62
2024/04/02 01:30:05;;;;;;;5.13;1.60;;;7.50;95.00;;;;;;6301060;28;20460;-62
2024/04/02 01:33:06;;;;;;;2.60;1.53;;;7.50;95.10;;;;;;6300767;28;20205;-63
2024/04/02 01:36:07;;;;;;;1.70;1.60;;;7.40;95.30;;;;;;6301396;28;20560;-63
2024/04/02 01:39:07;;;;;;;1.70;1.60;;;7.30;95.40;;;;;;6284229;28;20204;-62
2024/04/02 01:42:08;;;;;;;2.60;2.10;;;7.30;95.40;;;;;;6303151;28;20199;-62
2024/04/02 01:45:09;;;;;;;2.27;2.07;;;7.30;95.70;;;;;;6301808;28;20203;-62
2024/04/02 01:48:10;;;;;;;2.80;1.90;;;7.30;95.90;;;;;;6305120;28;20263;-62
2024/04/02 01:51:10;;;;;;;3.10;2.57;;;7.30;96.20;;;;;;6309614;28;20425;-62
2024/04/02 01:54:11;;;;;;;7.17;2.53;;;7.30;96.30;;;;;;6309911;28;20190;-63
2024/04/02 01:57:12;;;;;;;4.13;3.07;;;7.30;96.30;;;;;;6310579;28;20208;-62
2024/04/02 02:00:14;;;;;;;4.53;2.90;;;7.30;96.50;;;;;;6295234;28;20584;-63
2024/04/02 02:03:15;;;;;;;3.47;2.77;;;7.30;96.60;;;;;;6312229;28;20189;-62
2024/04/02 02:06:15;;;;;;;6.87;2.60;;;7.30;96.70;;;;;;6311409;28;20435;-62
2024/04/02 02:09:16;;;;;;;2.80;2.60;;;7.40;96.70;;;;;;6284918;28;20558;-62
2024/04/02 02:12:17;;;;;;;2.73;2.50;;;7.40;96.80;;;;;;6302437;28;20193;-62
2024/04/02 02:15:18;;;;;;;4.13;2.23;;;7.40;96.80;;;;;;6304705;28;20576;-62
2024/04/02 02:18:18;;;;;;;2.77;2.20;;;7.40;96.60;;;;;;6304575;28;20200;-62
2024/04/02 02:21:19;;;;;;;2.63;2.40;;;7.40;96.40;;;;;;6307722;28;20251;-63
2024/04/02 02:24:20;;;;;;;3.70;2.27;;;7.40;96.00;;;;;;6316790;28;20279;-62
2024/04/02 02:27:21;;;;;;;3.40;2.30;;;7.40;95.80;;;;;;6308481;28;20194;-61
2024/04/02 02:30:22;;;;;;;2.20;2.00;;;7.30;95.80;;;;;;6288287;28;20609;-62
2024/04/02 02:33:22;;;;;;;2.17;1.97;;;7.30;95.90;;;;;;6305971;28;20181;-62
2024/04/02 02:36:23;;;;;;;2.87;2.13;;;7.20;95.90;;;;;;6304538;28;20193;-62
2024/04/02 02:39:24;;;;;;;2.90;1.70;;;7.20;95.80;;;;;;6304100;28;20254;-63
2024/04/02 02:42:25;;;;;;;2.87;1.80;;;7.20;96.20;;;;;;6304700;28;20201;-62
2024/04/02 02:45:26;;;;;;;2.97;1.60;;;7.20;96.40;;;;;;6288229;28;20188;-62
2024/04/02 02:48:26;;;;;;;2.53;1.27;;;7.30;96.60;;;;;;6304040;28;20208;-62
2024/04/02 02:51:27;;;;;;;5.40;2.17;;;7.30;96.70;;;;;;6287634;28;20255;-63
2024/04/02 02:54:28;;;;;;;2.73;1.30;;;7.40;96.40;;;;;;6303814;28;20561;-63
2024/04/02 02:57:28;;;;;;;3.10;1.40;;;7.50;95.90;;;;;;6303954;28;20616;-62
2024/04/02 03:00:29;;;;;;;1.63;1.37;;;7.50;95.70;;;;;;6303733;28;20232;-62
2024/04/02 03:03:30;;;;;;;3.73;1.30;;;7.60;95.30;;;;;;6303637;28;20189;-61
2024/04/02 03:06:31;;;;;;;2.10;1.40;;;7.60;95.20;;;;;;6303818;28;20649;-62
2024/04/02 03:09:35;;;;;;;1.47;1.10;;;7.70;94.90;;;;;;6303775;28;20237;-62
2024/04/02 03:12:36;;;;;;;1.90;1.50;;;7.70;94.80;;;;;;6303764;28;20266;-62
2024/04/02 03:15:40;;;;;;;1.17;1.07;;;7.80;94.50;;;;;;6303205;28;20440;-62
2024/04/02 03:18:41;;;;;;;3.63;1.30;;;7.80;94.30;;;;;;6303486;28;20189;-62
2024/04/02 03:21:41;;;;;;;1.10;1.00;;;7.80;94.30;;;;;;6303306;28;20527;-62
2024/04/02 03:24:42;;;;;;;2.17;1.50;;;7.90;94.20;;;;;;6303938;28;20188;-62
2024/04/02 03:27:43;;;;;;;2.27;1.17;;;7.80;94.00;;;;;;6304401;28;20203;-62
2024/04/02 03:30:44;;;;;;;3.60;1.30;;;7.90;93.90;;;;;;6304771;28;20232;-62
2024/04/02 03:33:45;;;;;;;2.33;1.23;;;7.90;93.80;;;;;;6303728;28;20186;-63
2024/04/02 03:36:45;;;;;;;2.67;1.00;;;8.00;93.50;;;;;;6311246;28;20443;-63
2024/04/02 03:39:46;;;;;;;1.47;0.97;;;8.00;93.40;;;;;;6296410;28;20202;-63
2024/04/02 03:42:47;;;;;;;2.13;1.30;;;8.00;93.20;;;;;;6293562;28;20208;-64
2024/04/02 03:45:48;;;;;;;2.80;1.27;;;8.00;93.00;;;;;;6293627;28;20613;-63
2024/04/02 03:48:49;;;;;;;1.50;1.13;;;8.10;93.10;;;;;;6308551;28;20209;-63
2024/04/02 03:51:49;;;;;;;1.30;1.20;;;8.10;93.10;;;;;;6310529;28;20283;-63
2024/04/02 03:54:50;;;;;;;1.60;1.40;;;8.00;93.10;;;;;;6311028;28;20188;-63
2024/04/02 03:57:51;;;;;;;1.50;1.30;;;8.00;93.20;;;;;;6309509;28;20185;-63
2024/04/02 04:00:54;;;;;;;2.00;1.60;;;8.10;93.00;;;;;;6309949;28;20189;-62
2024/04/02 04:03:54;;;;;;;3.93;1.10;;;8.00;93.00;;;;;;6311625;28;20289;-63
2024/04/02 04:06:55;;;;;;;1.83;1.33;;;8.10;92.90;;;;;;6296862;28;20803;-63
2024/04/02 04:09:57;;;;;;;2.37;1.53;;;8.10;92.90;;;;;;6313968;28;20208;-63
2024/04/02 04:12:58;;;;;;;3.33;1.83;;;8.10;93.00;;;;;;6313296;28;20269;-62
2024/04/02 04:16:01;;;;;;;1.30;1.07;;;8.10;92.70;;;;;;6313955;28;20455;-63
2024/04/02 04:19:01;;;;;;;1.33;0.90;;;8.20;92.50;;;;;;6314392;28;20190;-63
2024/04/02 04:22:02;;;;;;;1.30;1.20;;;8.20;92.20;;;;;;6315202;28;20452;-63
2024/04/02 04:25:04;;;;;;;2.30;1.10;;;8.30;91.70;;;;;;6314742;28;20510;-63
2024/04/02 04:28:05;;;;;;;1.53;0.90;;;8.30;91.70;;;;;;6314237;28;20239;-63
2024/04/02 04:31:06;;;;;;;2.67;1.47;;;8.30;91.40;;;;;;6312353;28;20424;-63
2024/04/02 04:34:07;;;;;;;1.47;1.30;;;8.40;91.40;;;;;;6310636;28;20454;-63
2024/04/02 04:37:07;;;;;;;2.93;1.43;;;8.40;91.30;;;;;;6311033;28;20192;-63
2024/04/02 04:40:08;;;;;;;2.77;1.10;;;8.40;91.30;;;;;;6311056;28;20198;-63
2024/04/02 04:43:11;;;;;;;3.27;1.00;;;8.40;91.50;;;;;;6310552;28;20180;-63
2024/04/02 04:46:12;;;;;;;1.77;1.20;;;8.40;91.40;;;;;;6294552;28;20216;-63
2024/04/02 04:49:13;;;;;;;4.03;1.60;;;8.40;91.50;;;;;;6294171;28;20506;-62
2024/04/02 04:52:16;;;;;;;1.67;1.30;;;8.30;91.60;;;;;;6309361;28;20436;-62
2024/04/02 04:55:17;;;;;;;2.30;1.33;;;8.40;91.60;;;;;;6305884;28;20511;-62
2024/04/02 04:58:18;;;;;;;3.70;1.10;;;8.40;91.40;;;;;;6302307;28;20427;-62
2024/04/02 05:01:18;;;;;;;2.83;1.53;;;8.40;91.20;;;;;;6287127;28;20523;-62
2024/04/02 05:04:19;;;;;;;1.30;1.20;;;8.50;91.30;;;;;;6304222;28;20196;-62
2024/04/02 05:07:24;;;;;;;1.97;1.33;;;8.40;91.30;;;;;;6302751;28;20257;-62
2024/04/02 05:10:25;;;;;;;3.20;1.37;;;8.50;91.40;;;;;;6285378;28;20316;-62
2024/04/02 05:13:27;;;;;;;2.60;1.30;;;8.50;91.20;;;;;;6302309;28;20432;-62
2024/04/02 05:16:28;;;;;;;2.53;1.30;;;8.50;91.30;;;;;;6302580;28;20322;-62
2024/04/02 05:19:29;;;;;;;2.30;1.20;;;8.50;91.40;;;;;;6302872;28;20813;-61
2024/04/02 05:22:30;;;;;;;1.70;1.20;;;8.50;91.10;;;;;;6301912;28;20444;-62
2024/04/02 05:25:32;;;;;;;2.80;2.37;;;8.40;91.10;;;;;;6303226;28;20629;-62
2024/04/02 05:28:32;;;;;;;1.63;1.10;;;8.50;91.00;;;;;;6302268;28;20554;-61
2024/04/02 05:31:33;;;;;;;2.23;1.10;;;8.50;91.00;;;;;;6301891;28;20515;-63
2024/04/02 05:34:34;;;;;;;3.63;1.30;;;8.60;90.30;;;;;;6300846;28;20216;-61
2024/04/02 05:37:37;;;;;;;2.73;1.37;;;8.60;89.90;;;;;;6292085;28;20225;-62
2024/04/02 05:40:41;;;;;;;1.93;1.20;;;8.70;89.70;;;;;;6303110;28;20284;-63
2024/04/02 05:43:42;;;;;;;2.40;1.20;;;8.80;89.20;;;;;;6301375;28;20601;-63
2024/04/02 05:46:42;;;;;;;2.00;1.50;;;8.80;89.00;;;;;;6304251;28;20436;-62
2024/04/02 05:49:43;;;;;;;1.73;1.30;;;8.80;89.00;;;;;;6289256;28;20228;-63
2024/04/02 05:52:44;;;;;;;1.97;1.40;;;8.80;88.60;;;;;;6305316;28;20199;-63
2024/04/02 05:55:45;;;;;;;2.00;1.20;;;8.90;88.40;;;;;;6305786;28;20185;-62
2024/04/02 05:58:45;;;;;;;1.67;1.30;;;8.90;88.30;;;;;;6305554;28;20193;-63
2024/04/02 06:01:47;;;;;;;2.20;1.10;;;9.00;88.20;;;;;;6307882;28;20221;-62
2024/04/02 06:04:48;;;;;;;1.20;1.10;;;9.00;88.00;;;;;;6306577;28;20315;-63
2024/04/02 06:07:49;;;;;;;1.33;1.23;;;9.00;87.90;;;;;;6307103;28;20475;-63
2024/04/02 06:10:50;;;;;;;1.20;1.10;;;9.00;87.70;;;;;;6288745;28;20233;-63
2024/04/02 06:13:51;;;;;;;1.37;1.00;;;9.00;87.70;;;;;;6304398;28;20489;-63
2024/04/02 06:16:52;;;;;;;1.50;1.20;;;9.10;87.60;;;;;;6304257;28;20240;-63
2024/04/02 06:19:53;;;;;;;1.70;1.00;;;9.10;87.40;;;;;;6303920;28;20926;-63
2024/04/02 06:22:53;;;;;;;1.40;1.00;;;9.10;87.30;;;;;;6303903;28;20200;-63
2024/04/02 06:25:54;;;;;;;1.23;0.90;;;9.10;86.90;;;;;;6303613;28;20276;-63
2024/04/02 06:28:55;;;;;;;1.30;0.90;;;9.10;86.90;;;;;;6304439;28;20208;-62
2024/04/02 06:31:56;;;;;;;2.90;1.30;;;9.20;86.60;;;;;;6304525;28;20212;-63
2024/04/02 06:34:56;;;;;;;1.10;0.90;;;9.20;86.60;;;;;;6303576;28;20188;-62
2024/04/02 06:37:57;;;;;;;2.10;1.30;;;9.20;86.50;;;;;;6302970;28;20469;-63
2024/04/02 06:40:58;;;;;;;1.10;0.97;;;9.30;86.70;;;;;;6310008;28;20283;-63
2024/04/02 06:44:00;;;;;;;1.30;1.20;;;9.30;86.80;;;;;;6303734;28;20208;-63
2024/04/02 06:47:01;;;;;;;1.13;0.90;;;9.40;86.60;;;;;;6303180;28;20507;-63
2024/04/02 06:50:02;;;;;;;1.30;1.10;;;9.40;86.70;;;;;;6286288;28;20471;-63
2024/04/02 06:53:03;;;;;;;1.10;1.00;;;9.40;86.90;;;;;;6303437;28;20432;-63
2024/04/02 06:56:05;;;;;;;1.37;1.00;;;9.40;87.10;;;;;;6303690;28;20562;-63
2024/04/02 06:59:05;;;;;;;1.10;0.90;;;9.40;86.80;;;;;;6302801;28;20365;-63
2024/04/02 07:02:06;;;;;;;1.13;0.80;;;9.40;87.20;;;;;;6303411;28;20463;-64
2024/04/02 07:05:07;;;;;;;2.27;1.10;;;9.40;87.20;;;;;;6287233;28;20278;-62
2024/04/02 07:08:08;;;;;;;1.20;1.10;;;9.50;87.40;;;;;;6303440;28;20232;-63
2024/04/02 07:11:10;;;;;;;1.17;1.03;;;9.50;87.40;;;;;;6303658;28;20185;-63
2024/04/02 07:14:11;;;;;;;1.77;1.00;;;9.60;87.00;;;;;;6303465;28;20292;-63
2024/04/02 07:17:13;;;;;;;4.50;1.30;;;9.60;86.60;;;;;;6290532;28;20443;-63
2024/04/02 07:20:15;;;;;;;3.83;1.27;;;9.70;86.70;;;;;;6304735;28;20933;-63
2024/04/02 07:23:16;;;;;;;1.00;0.90;;;9.70;86.50;;;;;;6303342;28;20436;-62
2024/04/02 07:26:17;;;;;;;2.80;1.07;;;9.70;86.50;;;;;;6304272;28;20276;-64
2024/04/02 07:29:17;;;;;;;1.40;1.07;;;9.80;86.10;;;;;;6304213;28;20465;-63
2024/04/02 07:32:18;;;;;;;1.90;1.20;;;9.80;86.30;;;;;;6287975;28;20185;-64
2024/04/02 07:35:19;;;;;;;1.20;0.90;;;9.70;86.80;;;;;;6286453;28;20216;-63
2024/04/02 07:38:20;;;;;;;2.80;1.00;;;9.70;87.20;;;;;;6303160;28;20631;-63
2024/04/02 07:41:21;;;;;;;1.43;1.33;;;9.70;87.60;;;;;;6303522;28;20197;-64
2024/04/02 07:44:24;;;;;;;1.33;0.80;;;9.70;87.90;;;;;;6302339;28;20607;-63
2024/04/02 07:47:25;;;;;;;2.23;1.13;;;9.80;87.60;;;;;;6306538;28;20817;-63
2024/04/02 07:50:34;;;;;;;1.60;1.10;;;9.90;87.20;;;;;;6284532;28;20460;-64
2024/04/02 07:53:36;;;;;;;2.70;1.30;;;10.20;86.60;;;;;;6284541;28;20231;-63
2024/04/02 07:56:36;;;;;;;1.10;0.90;;;10.60;85.40;;;;;;6301530;28;20527;-64
2024/04/02 07:59:37;;;;;;;4.37;1.60;;;10.80;84.30;;;;;;6301465;28;20479;-63
2024/04/02 08:02:38;;;;;;;1.20;1.00;;;11.00;83.50;;;;;;6300918;28;20213;-64
2024/04/02 08:05:40;;;;;;;2.23;1.30;;;11.20;82.90;;;;;;6301889;28;20498;-64
2024/04/02 08:08:41;;;;;;;3.10;1.40;;;11.40;81.90;;;;;;6302999;28;20320;-64
2024/04/02 08:11:43;;;;;;;4.93;1.57;;;11.60;80.40;;;;;;6296543;28;20474;-64
2024/04/02 08:14:45;;;;;;;5.47;1.80;;;11.70;80.50;;;;;;6308478;28;20299;-63
2024/04/02 08:17:46;;;;;;;5.40;2.00;;;11.70;78.20;;;;;;6302651;28;20435;-63
2024/04/02 08:20:47;;;;;;;7.07;1.93;;;11.70;78.50;;;;;;6301962;28;20188;-63
2024/04/02 08:23:47;;;;;;;3.20;2.03;;;11.40;77.50;;;;;;6302724;28;20280;-63
2024/04/02 08:26:48;;;;;;;5.40;2.30;;;11.20;79.40;;;;;;6301401;28;20196;-64
2024/04/02 08:29:49;;;;;;;5.70;2.20;;;11.20;79.00;;;;;;6301229;28;20254;-64
2024/04/02 08:32:50;;;;;;;4.33;2.23;;;11.20;79.80;;;;;;6301187;28;20338;-64
2024/04/02 08:35:51;;;;;;;8.80;2.60;;;11.20;79.00;;;;;;6300956;28;20226;-64
2024/04/02 08:38:53;;;;;;;6.60;1.97;;;11.30;79.00;;;;;;6301155;28;20200;-64
2024/04/02 08:41:59;;;;;;;2.57;1.93;;;11.40;77.90;;;;;;6300820;28;20522;-64
2024/04/02 08:45:01;;;;;;;7.43;2.03;;;11.60;77.80;;;;;;6301007;28;20511;-63
2024/04/02 08:48:02;;;;;;;4.17;1.77;;;11.70;77.20;;;;;;6300551;28;20520;-63
2024/04/02 08:51:05;;;;;;;5.13;2.20;;;11.80;76.20;;;;;;6300090;28;20463;-64
2024/04/02 08:54:05;;;;;;;7.70;2.30;;;11.90;76.00;;;;;;6300710;28;20257;-64
2024/04/02 08:57:06;;;;;;;3.20;1.60;;;12.00;75.60;;;;;;6300506;28;20467;-64
2024/04/02 09:00:07;;;;;;;4.50;1.90;;;11.90;75.40;;;;;;6300570;28;20225;-63
2024/04/02 09:03:10;;;;;;;3.33;2.10;;;11.90;75.50;;;;;;6283876;28;20193;-64
2024/04/02 09:06:11;;;;;;;6.67;2.23;;;12.00;75.00;;;;;;6285397;28;20984;-64
2024/04/02 09:09:22;;;;;;;4.93;2.20;;;12.20;75.10;;;;;;6302512;28;20522;-64
2024/04/02 09:12:23;;;;;;;4.90;1.80;;;12.30;72.50;;;;;;6301881;28;20274;-64
2024/04/02 09:15:25;;;;;;;5.87;1.97;;;12.20;70.30;;;;;;6284694;28;20971;-64
2024/04/02 09:18:30;;;;;;;5.10;1.90;;;12.10;70.30;;;;;;6301186;28;20543;-64
2024/04/02 09:21:31;;;;;;;6.97;1.97;;;12.30;71.40;;;;;;6308428;28;20512;-65
2024/04/02 09:24:32;;;;;;;3.53;1.67;;;12.40;70.90;;;;;;6312154;28;20424;-65
2024/04/02 09:27:33;;;;;;;8.60;1.60;;;12.50;71.50;;;;;;6306103;28;20182;-65
2024/04/02 09:30:34;;;;;;;2.50;1.63;;;12.40;72.30;;;;;;6305030;28;20305;-65
2024/04/02 09:33:37;;;;;;;3.10;2.03;;;12.20;73.00;;;;;;6304617;28;20527;-65
2024/04/02 09:36:48;;;;;;;5.80;1.93;;;12.10;73.40;;;;;;6304389;28;20262;-66
2024/04/02 09:39:50;;;;;;;4.23;1.93;;;12.10;74.10;;;;;;6288560;28;21004;-66
2024/04/02 09:42:51;;;;;;;6.20;1.60;;;12.10;74.50;;;;;;6304948;28;20522;-66
2024/04/02 09:45:52;;;;;;;4.47;1.90;;;12.10;74.40;;;;;;6287692;28;20461;-64
2024/04/02 09:48:55;;;;;;;4.00;1.50;;;12.00;74.10;;;;;;6304450;28;20274;-66
2024/04/02 09:51:57;;;;;;;5.43;1.40;;;12.00;74.10;;;;;;6304326;28;20518;-65
2024/04/02 09:55:00;;;;;;;2.50;1.40;;;12.10;74.20;;;;;;6304684;28;20510;-65
2024/04/02 09:58:01;;;;;;;4.17;2.17;;;12.00;73.90;;;;;;6304103;28;20514;-66
2024/04/02 10:01:02;;;;;;;8.53;1.90;;;11.90;73.80;;;;;;6304126;28;20518;-65
2024/04/02 10:04:09;;;;;;;3.67;2.37;;;11.90;74.40;;;;;;6303567;28;20980;-65
2024/04/02 10:07:23;;;;;;;5.83;1.53;;;11.70;74.70;;;;;;6304629;28;20517;-66
2024/04/02 10:10:30;;;;;;;4.83;1.60;;;11.80;74.80;;;;;;6304735;28;20550;-65
2024/04/02 10:13:36;;;;;;;6.53;2.20;;;11.70;73.10;;;;;;6303843;28;20408;-66
2024/04/02 10:16:41;;;;;;;3.20;1.80;;;11.70;73.40;;;;;;6303355;28;20526;-66
2024/04/02 10:19:50;;;;;;;4.60;1.70;;;11.70;73.60;;;;;;6303640;28;20530;-66
2024/04/02 10:22:55;;;;;;;3.57;1.70;;;11.90;73.20;;;;;;6303546;28;20438;-66
2024/04/02 10:25:56;;;;;;;2.70;1.50;;;12.20;71.30;;;;;;6286331;28;21085;-66
2024/04/02 10:28:57;;;;;;;8.00;1.87;;;12.30;70.50;;;;;;6303274;28;20472;-65
2024/04/02 10:31:58;;;;;;;3.00;1.47;;;12.40;71.20;;;;;;6303700;28;20276;-66
2024/04/02 10:34:59;;;;;;;2.30;1.30;;;12.60;69.20;;;;;;6319059;28;20515;-65
2024/04/02 10:37:59;;;;;;;5.80;1.50;;;12.60;68.90;;;;;;6303572;28;20208;-65
2024/04/02 10:41:00;;;;;;;5.70;1.50;;;12.80;69.10;;;;;;6303743;28;20189;-66
2024/04/02 10:44:02;;;;;;;3.93;1.23;;;12.90;68.40;;;;;;6286721;28;20197;-65
2024/04/02 10:47:05;;;;;;;6.00;2.10;;;13.10;68.40;;;;;;6304167;28;20190;-65
2024/04/02 10:50:05;;;;;;;3.07;1.43;;;13.10;67.60;;;;;;6303477;28;20460;-66
2024/04/02 10:53:07;;;;;;;7.67;1.80;;;13.10;68.20;;;;;;6303445;28;20481;-66
2024/04/02 10:56:07;;;;;;;3.40;1.53;;;13.30;69.20;;;;;;6303770;28;20288;-66
2024/04/02 10:59:09;;;;;;;3.00;1.57;;;13.60;68.00;;;;;;6303174;28;20436;-65
2024/04/02 11:02:19;;;;;;;1.67;1.57;;;13.60;67.10;;;;;;6289045;28;20233;-65
2024/04/02 11:05:19;;;;;;;4.07;1.60;;;13.80;66.20;;;;;;6313665;28;20442;-65
2024/04/02 11:08:20;;;;;;;2.90;1.40;;;13.90;66.70;;;;;;6307721;28;20470;-65
2024/04/02 11:11:23;;;;;;;8.10;1.33;;;14.30;66.50;;;;;;6303569;28;20208;-65
2024/04/02 11:14:29;;;;;;;3.47;1.30;;;14.50;64.50;;;;;;6304236;28;20522;-65
2024/04/02 11:17:29;;;;;;;3.33;1.47;;;14.60;65.20;;;;;;6304887;28;20456;-64
2024/04/02 11:20:30;;;;;;;6.10;1.70;;;14.60;62.60;;;;;;6298888;28;20915;-65
2024/04/02 11:26:50;;;;;;;1.83;1.20;;;13.90;63.80;;;;;;6312824;28;20224;-65
2024/04/02 11:29:53;;;;;;;1.90;1.10;;;13.70;66.10;;;;;;6305094;28;20448;-64
2024/04/02 11:32:53;;;;;;;3.93;1.00;;;13.80;65.80;;;;;;6313196;28;20209;-65
2024/04/02 11:35:55;;;;;;;4.30;1.00;;;13.90;65.80;;;;;;6320190;28;20467;-64
2024/04/02 11:38:56;;;;;;;2.33;1.70;;;13.90;65.10;;;;;;6321924;28;20331;-66
2024/04/02 11:41:57;;;;;;;3.40;1.20;;;13.80;64.10;;;;;;6322823;28;20458;-65
2024/04/02 11:45:00;;;;;;;2.97;1.13;;;13.60;66.10;;;;;;6316376;28;20202;-64
2024/04/02 11:48:01;;;;;;;2.80;1.50;;;13.50;64.50;;;;;;6306627;28;20617;-65
2024/04/02 11:51:03;;;;;;;4.23;1.30;;;13.50;65.20;;;;;;6306269;28;20469;-65
2024/04/02 11:54:04;;;;;;;1.57;1.00;;;13.70;64.70;;;;;;6305476;28;20268;-64
2024/04/02 12:00:24;;;;;;;4.03;1.10;;;13.50;64.20;;;;;;6317510;28;20617;-64
2024/04/02 12:03:25;;;;;;;6.70;1.10;;;13.60;64.60;;;;;;6316281;28;20436;-65
2024/04/02 12:06:26;;;;;;;2.00;1.00;;;13.50;64.90;;;;;;6317172;28;20193;-64
2024/04/02 12:09:27;;;;;;;2.33;1.20;;;13.70;66.70;;;;;;6311553;28;20695;-63
2024/04/02 12:12:28;;;;;;;4.50;1.10;;;13.90;66.40;;;;;;6313588;28;20476;-65
2024/04/02 12:15:29;;;;;;;2.23;1.20;;;13.90;66.40;;;;;;6317818;28;20281;-64
2024/04/02 12:18:29;;;;;;;3.30;1.50;;;13.70;67.90;;;;;;6321424;28;20455;-65
2024/04/02 12:21:30;;;;;;;1.87;1.07;;;13.60;68.20;;;;;;6319789;28;20181;-65
2024/04/02 12:24:31;;;;;;;2.43;1.20;;;13.50;70.00;;;;;;6318090;28;20608;-65
2024/04/02 12:27:32;;;;;;;3.00;1.30;;;13.50;70.70;;;;;;6288448;28;20720;-65
2024/04/02 12:30:33;;;;;;;4.53;1.23;;;13.60;71.00;;;;;;6302937;28;20488;-64
2024/04/02 12:33:34;;;;;;;3.93;1.30;;;13.90;68.10;;;;;;6302508;28;20185;-64
2024/04/02 12:36:34;;;;;;;3.53;0.90;;;14.10;68.00;;;;;;6302435;28;20191;-63
2024/04/02 12:39:36;;;;;;;4.93;1.10;;;14.40;65.90;;;;;;6287118;28;20247;-64
2024/04/02 12:42:38;;;;;;;3.27;1.10;;;14.80;65.30;;;;;;6306232;28;20715;-64
2024/04/02 12:45:39;;;;;;;3.53;1.13;;;14.90;64.40;;;;;;6306968;28;20962;-64
2024/04/02 12:48:39;;;;;;;3.00;1.20;;;14.60;61.70;;;;;;6301419;28;20459;-64
2024/04/02 12:51:40;;;;;;;1.63;1.00;;;14.10;61.70;;;;;;6285243;28;20184;-64
2024/04/02 12:54:41;;;;;;;3.50;1.27;;;13.80;63.60;;;;;;6301060;28;20184;-65
2024/04/02 12:57:44;;;;;;;3.10;1.47;;;13.40;66.30;;;;;;6301446;28;20193;-64
2024/04/02 13:00:45;;;;;;;3.33;1.20;;;13.20;65.60;;;;;;6284130;28;20288;-65
2024/04/02 13:03:47;;;;;;;7.17;1.40;;;13.20;67.90;;;;;;6300881;28;20447;-64
2024/04/02 13:06:48;;;;;;;4.40;1.10;;;13.30;67.30;;;;;;6299485;28;20216;-64
2024/04/02 13:09:48;;;;;;;5.17;1.53;;;13.40;66.60;;;;;;6299869;28;20472;-64
2024/04/02 13:12:49;;;;;;;5.10;1.50;;;13.40;66.50;;;;;;6300414;28;20236;-63
2024/04/02 13:15:50;;;;;;;5.10;1.40;;;13.30;66.00;;;;;;6283705;28;20215;-64
2024/04/02 13:18:51;;;;;;;4.17;1.40;;;13.30;64.70;;;;;;6303287;28;20224;-64
2024/04/02 13:21:51;;;;;;;4.67;1.50;;;13.20;64.60;;;;;;6287574;28;20202;-65
2024/04/02 13:24:52;;;;;;;4.37;1.33;;;13.30;64.20;;;;;;6305599;28;20283;-64
2024/04/02 13:27:53;;;;;;;3.63;1.03;;;13.30;65.50;;;;;;6306360;28;20254;-64
2024/04/02 13:31:02;;;;;;;2.20;1.20;;;13.10;64.00;;;;;;6302427;28;20307;-64
2024/04/02 13:34:03;;;;;;;2.57;1.40;;;13.10;61.00;;;;;;6301826;28;20280;-64
2024/04/02 13:37:05;;;;;;;2.73;1.20;;;13.20;61.10;;;;;;6300469;28;20431;-64
2024/04/02 13:40:06;;;;;;;4.33;1.20;;;13.50;60.90;;;;;;6283641;28;20280;-63
2024/04/02 13:43:07;;;;;;;5.00;1.37;;;13.50;61.00;;;;;;6301439;28;20529;-64
2024/04/02 13:46:07;;;;;;;5.50;2.00;;;13.50;58.90;;;;;;6301619;28;20439;-65
2024/04/02 13:49:08;;;;;;;3.47;1.37;;;13.30;60.00;;;;;;6300098;28;20217;-65
2024/04/02 13:52:09;;;;;;;5.70;1.57;;;13.20;60.20;;;;;;6300401;28;20228;-65
2024/04/02 13:55:10;;;;;;;5.27;1.40;;;13.30;61.40;;;;;;6300149;28;20224;-66
2024/04/02 13:58:10;;;;;;;6.13;1.90;;;13.50;62.40;;;;;;6302086;28;20599;-66
2024/04/02 14:01:11;;;;;;;4.60;1.50;;;13.60;61.60;;;;;;6314253;28;20204;-65
2024/04/02 14:04:12;;;;;;;2.93;1.50;;;13.80;61.10;;;;;;6304455;28;20177;-66
2024/04/02 14:07:13;;;;;;;1.33;1.17;;;13.90;61.00;;;;;;6303041;28;20236;-65
2024/04/02 14:10:13;;;;;;;6.53;1.83;;;14.10;62.90;;;;;;6304098;28;20555;-66
2024/04/02 14:13:17;;;;;;;4.53;1.40;;;14.20;62.40;;;;;;6304575;28;20189;-64
2024/04/02 14:16:18;;;;;;;2.97;1.50;;;14.30;62.80;;;;;;6287377;28;20189;-66
2024/04/02 14:19:18;;;;;;;3.13;1.30;;;14.50;62.60;;;;;;6304758;28;20436;-66
2024/04/02 14:22:19;;;;;;;4.20;1.63;;;14.70;59.70;;;;;;6303863;28;20270;-65
2024/04/02 14:25:20;;;;;;;7.50;1.70;;;14.70;58.80;;;;;;6304211;28;20222;-65
2024/04/02 14:28:22;;;;;;;4.77;1.40;;;14.50;59.50;;;;;;6304017;28;20224;-64
2024/04/02 14:31:24;;;;;;;3.90;1.53;;;14.30;59.90;;;;;;6303613;28;20556;-65
2024/04/02 14:34:25;;;;;;;2.20;1.40;;;14.20;59.80;;;;;;6304677;28;20487;-66
2024/04/02 14:37:25;;;;;;;3.03;1.37;;;14.10;61.20;;;;;;6287487;28;20416;-66
2024/04/02 14:40:26;;;;;;;3.37;1.23;;;14.00;62.70;;;;;;6303801;28;20194;-66
2024/04/02 14:43:28;;;;;;;2.37;1.30;;;14.00;62.80;;;;;;6304226;28;20206;-65
2024/04/02 14:46:29;;;;;;;2.77;1.40;;;14.00;64.50;;;;;;6303969;28;20288;-65
2024/04/02 14:49:29;;;;;;;4.93;1.63;;;14.00;64.30;;;;;;6303530;28;20510;-65
2024/04/02 14:52:31;;;;;;;4.30;1.40;;;14.10;65.00;;;;;;6303382;28;20186;-65
2024/04/02 14:55:32;;;;;;;2.17;1.43;;;14.30;63.50;;;;;;6303774;28;20300;-67
2024/04/02 14:58:34;;;;;;;3.63;1.43;;;14.20;60.60;;;;;;6303023;28;20569;-66
2024/04/02 15:01:35;;;;;;;8.30;1.57;;;14.10;61.00;;;;;;6303100;28;20434;-66
2024/04/02 15:04:42;;;;;;;3.03;1.40;;;14.10;61.30;;;;;;6312403;28;20424;-65
2024/04/02 15:07:43;;;;;;;2.90;1.20;;;13.90;62.30;;;;;;6302979;28;20312;-66
2024/04/02 15:10:44;;;;;;;7.97;1.63;;;14.00;63.50;;;;;;6302605;28;20488;-66
2024/04/02 15:13:46;;;;;;;3.63;1.13;;;14.00;65.00;;;;;;6302681;28;20199;-65
2024/04/02 15:16:47;;;;;;;3.33;1.60;;;14.00;66.00;;;;;;6302673;28;20711;-66
2024/04/02 15:19:48;;;;;;;3.33;1.50;;;13.90;66.20;;;;;;6302844;28;20459;-66
2024/04/02 15:22:52;;;;;;;4.60;1.30;;;13.90;65.40;;;;;;6302461;28;20530;-65
2024/04/02 15:25:53;;;;;;;4.53;1.50;;;13.80;66.00;;;;;;6302662;28;20292;-64
2024/04/02 15:28:54;;;;;;;4.63;1.23;;;13.80;66.20;;;;;;6303491;28;20522;-66
2024/04/02 15:31:56;;;;;;;6.73;1.43;;;13.80;65.40;;;;;;6303019;28;20938;-65
2024/04/02 15:34:57;;;;;;;5.43;1.50;;;13.90;64.90;;;;;;6303225;28;20185;-65
2024/04/02 15:37:57;;;;;;;3.23;2.03;;;14.20;64.10;;;;;;6303727;28;20923;-65
2024/04/02 15:40:58;;;;;;;3.47;1.40;;;14.40;64.50;;;;;;6302263;28;20650;-65
2024/04/02 15:43:59;;;;;;;7.07;1.53;;;14.60;63.40;;;;;;6302230;28;20198;-65
2024/04/02 15:47:00;;;;;;;3.00;1.30;;;14.80;62.40;;;;;;6302695;28;20507;-64
2024/04/02 15:50:01;;;;;;;4.43;1.30;;;15.00;62.00;;;;;;6304200;28;20205;-65
2024/04/02 15:53:06;;;;;;;3.70;1.33;;;15.00;61.80;;;;;;6291169;28;20189;-64
2024/04/02 15:56:07;;;;;;;2.10;1.13;;;15.10;60.70;;;;;;6302940;28;20432;-64
2024/04/02 15:59:09;;;;;;;5.00;2.00;;;15.10;60.50;;;;;;6302507;28;20542;-65